Time;durP1;ratioP1;P1;durP2;ratioP2;P2;SDS_P1;SDS_P2;PMS_P1;PMS_P2;Temp;Humidity;BMP_temperature;BMP_pressure;BME280_temperature;BME280_humidity;BME280_pressure;Samples;Min_cycle;Max_cycle;Signal;HPM_P1;HPM_P2
2021/06/27 00:01:26;;;;;;;9.00;8.10;;;;;;;18.19;88.95;156038.09;4992648;28;20422;-75
2021/06/27 00:04:02;;;;;;;10.00;9.00;;;;;;;18.16;88.25;156029.00;4975728;28;20514;-75
2021/06/27 00:06:39;;;;;;;9.43;8.63;;;;;;;18.12;88.53;156019.88;4975093;28;20449;-75
2021/06/27 00:09:15;;;;;;;8.70;7.97;;;;;;;18.10;88.87;156014.66;4975489;28;20933;-74
2021/06/27 00:11:52;;;;;;;9.27;8.40;;;;;;;18.06;89.28;156004.22;4975815;28;20464;-74
2021/06/27 00:14:28;;;;;;;10.43;8.43;;;;;;;18.03;90.81;155996.41;4975664;28;20473;-75
2021/06/27 00:17:05;;;;;;;9.50;8.50;;;;;;;17.99;90.54;155984.69;4974991;28;20496;-75
2021/06/27 00:19:40;;;;;;;9.97;9.07;;;;;;;17.96;90.25;155976.88;4993135;28;20446;-75
2021/06/27 00:22:17;;;;;;;9.43;8.63;;;;;;;17.90;91.63;155962.56;4993185;28;20441;-75
2021/06/27 00:24:52;;;;;;;9.47;8.57;;;;;;;17.86;91.53;155952.16;4975733;28;20952;-75
2021/06/27 00:27:28;;;;;;;9.47;8.63;;;;;;;17.85;90.94;155949.53;4975175;28;20863;-75
2021/06/27 00:30:05;;;;;;;9.40;8.20;;;;;;;17.83;90.70;155943.03;4977069;28;20418;-76
2021/06/27 00:32:40;;;;;;;9.13;8.33;;;;;;;17.83;90.52;155943.03;4975966;28;20823;-75
2021/06/27 00:35:18;;;;;;;9.60;8.60;;;;;;;17.79;89.74;155933.91;4991361;28;20474;-75
2021/06/27 00:37:55;;;;;;;8.80;7.93;;;;;;;17.77;90.43;155928.69;4975839;28;20937;-74
2021/06/27 00:40:31;;;;;;;9.27;8.37;;;;;;;17.72;90.15;155915.69;4977969;28;20450;-75
2021/06/27 00:43:07;;;;;;;9.30;8.07;;;;;;;17.68;90.56;155903.97;4961091;28;20465;-75
2021/06/27 00:45:42;;;;;;;8.50;7.70;;;;;;;17.63;91.07;155892.28;4995278;28;20428;-75
2021/06/27 00:48:18;;;;;;;9.50;8.60;;;;;;;17.58;90.90;155880.53;4998647;28;20454;-75
2021/06/27 00:50:56;;;;;;;8.43;7.53;;;;;;;17.54;90.61;155870.16;4981500;28;20437;-74
2021/06/27 00:53:33;;;;;;;7.80;7.10;;;;;;;17.51;91.78;155862.28;4996508;28;20474;-75
2021/06/27 00:56:09;;;;;;;8.87;7.97;;;;;;;17.47;90.75;155850.56;4986858;28;20556;-75
2021/06/27 00:58:45;;;;;;;7.83;7.13;;;;;;;17.46;89.96;155849.25;4996209;28;20488;-75
2021/06/27 01:01:20;;;;;;;8.70;7.90;;;;;;;17.47;89.23;155850.56;4978848;28;20445;-75
2021/06/27 01:03:56;;;;;;;8.50;7.70;;;;;;;17.53;89.31;155866.22;4995853;28;20445;-75
2021/06/27 01:06:31;;;;;;;8.47;7.67;;;;;;;17.49;88.08;155855.78;4978497;28;20933;-75
2021/06/27 01:09:08;;;;;;;8.13;7.40;;;;;;;17.46;88.81;155847.94;4959409;28;20438;-75
2021/06/27 01:11:44;;;;;;;8.97;6.57;;;;;;;17.45;87.69;155845.34;4970661;28;21097;-75
2021/06/27 01:14:20;;;;;;;10.00;7.70;;;;;;;17.44;88.51;155842.75;4977849;28;20481;-75
2021/06/27 01:16:55;;;;;;;8.37;7.17;;;;;;;17.43;87.21;155840.13;4995930;28;20457;-75
2021/06/27 01:19:32;;;;;;;9.13;7.87;;;;;;;17.47;87.05;155850.56;4978682;28;20481;-75
2021/06/27 01:22:09;;;;;;;7.80;7.10;;;;;;;17.54;86.69;155868.84;4979749;28;20442;-75
2021/06/27 01:24:45;;;;;;;7.77;7.07;;;;;;;17.53;86.04;155867.53;4977935;28;20446;-75
2021/06/27 01:27:21;;;;;;;8.83;8.03;;;;;;;17.53;86.32;155866.22;4978101;28;20905;-75
2021/06/27 01:29:56;;;;;;;7.70;7.00;;;;;;;17.51;86.97;155862.28;4959351;28;20488;-75
2021/06/27 01:32:32;;;;;;;8.40;7.63;;;;;;;17.47;87.09;155850.56;4967920;28;20461;-76
2021/06/27 01:35:09;;;;;;;7.50;6.80;;;;;;;17.44;88.06;155842.75;4978307;28;20516;-75
2021/06/27 01:37:47;;;;;;;7.03;6.43;;;;;;;17.43;87.22;155840.13;4994617;28;20884;-75
2021/06/27 01:40:24;;;;;;;7.43;6.80;;;;;;;17.43;86.63;155840.13;4977967;28;20544;-75
2021/06/27 01:43:21;;;;;;;7.67;6.97;;;;;;;17.49;86.10;155855.78;4974887;28;20447;-75
2021/06/27 01:45:59;;;;;;;7.03;6.33;;;;;;;17.61;83.76;155888.34;4987229;28;20925;-75
2021/06/27 01:48:36;;;;;;;6.63;6.03;;;;;;;17.80;81.71;155935.22;4977440;28;20477;-75
2021/06/27 01:51:11;;;;;;;7.53;5.77;;;;;;;17.83;82.42;155944.34;4994673;28;20454;-75
2021/06/27 01:53:48;;;;;;;6.73;6.13;;;;;;;17.78;82.67;155931.31;4976333;28;20466;-75
2021/06/27 01:56:23;;;;;;;7.03;6.33;;;;;;;17.81;81.82;155939.16;4974437;28;20474;-75
2021/06/27 01:59:02;;;;;;;7.80;6.50;;;;;;;17.77;82.13;155928.69;4975798;28;20469;-75
2021/06/27 02:01:39;;;;;;;6.60;6.00;;;;;;;17.72;81.50;155915.69;4977272;28;20456;-75
2021/06/27 02:04:15;;;;;;;7.27;6.57;;;;;;;17.71;82.11;155913.13;4995157;28;20418;-74
2021/06/27 02:06:50;;;;;;;7.60;6.90;;;;;;;17.68;82.03;155905.28;4995284;28;20445;-75
2021/06/27 02:09:27;;;;;;;6.70;6.10;;;;;;;17.66;81.47;155900.06;4977334;28;20842;-75
2021/06/27 02:12:03;;;;;;;7.60;7.00;;;;;;;17.62;81.64;155890.97;4977052;28;20458;-75
2021/06/27 02:14:38;;;;;;;7.53;6.83;;;;;;;17.58;82.07;155879.22;4977251;28;21013;-75
2021/06/27 02:17:14;;;;;;;6.77;6.17;;;;;;;17.56;83.11;155875.34;4977385;28;20458;-75
2021/06/27 02:19:54;;;;;;;6.97;6.10;;;;;;;17.67;80.73;155901.38;4976976;28;20441;-75
2021/06/27 02:22:29;;;;;;;6.90;6.30;;;;;;;17.66;82.02;155900.06;4977261;28;20446;-75
2021/06/27 02:25:07;;;;;;;6.07;5.47;;;;;;;17.65;80.89;155897.47;4994762;28;20417;-75
2021/06/27 02:27:43;;;;;;;8.10;6.00;;;;;;;17.70;79.97;155909.19;4994833;28;20536;-75
2021/06/27 02:30:19;;;;;;;5.97;5.47;;;;;;;17.75;79.83;155923.50;4976877;28;20453;-75
2021/06/27 02:32:55;;;;;;;5.50;5.00;;;;;;;17.75;79.96;155923.50;4977050;28;20552;-75
2021/06/27 02:35:30;;;;;;;6.03;5.43;;;;;;;17.81;78.99;155939.16;4976955;28;20481;-75
2021/06/27 02:38:06;;;;;;;6.53;5.20;;;;;;;17.94;78.23;155973.00;4994764;28;20540;-75
2021/06/27 02:40:43;;;;;;;6.60;5.90;;;;;;;17.86;79.40;155950.84;4977660;28;20445;-75
2021/06/27 02:43:19;;;;;;;6.70;6.10;;;;;;;17.73;80.36;155918.31;4993254;28;20453;-75
2021/06/27 02:45:55;;;;;;;6.37;5.77;;;;;;;17.62;80.58;155889.66;4993195;28;20433;-75
2021/06/27 02:48:30;;;;;;;6.60;6.00;;;;;;;17.51;82.63;155862.28;4976597;28;20522;-75
2021/06/27 02:51:06;;;;;;;6.70;6.10;;;;;;;17.39;85.61;155829.75;4976532;28;20485;-75
2021/06/27 02:53:42;;;;;;;6.20;5.70;;;;;;;17.31;84.48;155808.91;4976990;28;20469;-75
2021/06/27 02:56:18;;;;;;;6.43;5.83;;;;;;;17.23;85.13;155789.41;4958357;28;20466;-75
2021/06/27 02:58:54;;;;;;;7.20;6.50;;;;;;;17.19;85.91;155777.66;4986347;28;20481;-75
2021/06/27 03:01:30;;;;;;;6.50;5.90;;;;;;;17.09;85.61;155752.94;4976189;28;20434;-75
2021/06/27 03:04:05;;;;;;;6.57;5.97;;;;;;;17.13;85.26;155763.34;4975812;28;20441;-75
2021/06/27 03:06:41;;;;;;;5.93;5.43;;;;;;;17.09;86.36;155751.63;4975657;28;20449;-75
2021/06/27 03:09:16;;;;;;;8.10;6.30;;;;;;;17.05;86.00;155743.81;4975176;28;20445;-75
2021/06/27 03:11:53;;;;;;;6.80;6.10;;;;;;;17.01;86.06;155733.44;4942275;28;20458;-75
2021/06/27 03:14:29;;;;;;;6.30;5.70;;;;;;;17.10;84.67;155754.25;4979741;28;20441;-75
2021/06/27 03:17:04;;;;;;;6.77;6.07;;;;;;;17.24;84.41;155790.66;4985035;28;20568;-75
2021/06/27 03:19:40;;;;;;;6.30;5.60;;;;;;;17.30;84.45;155806.28;4972362;28;20422;-75
2021/06/27 03:22:16;;;;;;;6.67;5.70;;;;;;;17.31;83.77;155808.91;4959043;28;20453;-75
2021/06/27 03:24:51;;;;;;;6.87;6.27;;;;;;;17.40;82.94;155832.31;4991987;28;20442;-75
2021/06/27 03:27:28;;;;;;;6.23;5.63;;;;;;;17.48;82.64;155853.16;4975473;28;20445;-74
2021/06/27 03:30:05;;;;;;;6.10;5.60;;;;;;;17.51;82.40;155860.97;4993323;28;20422;-75
2021/06/27 03:32:41;;;;;;;6.27;5.67;;;;;;;17.59;81.55;155881.84;4976058;28;20925;-75
2021/06/27 03:35:17;;;;;;;6.60;6.00;;;;;;;17.71;80.97;155913.13;4975425;28;20469;-75
2021/06/27 03:37:58;;;;;;;5.30;4.83;;;;;;;17.73;80.95;155918.31;4993221;28;20528;-75
2021/06/27 03:40:33;;;;;;;7.07;6.37;;;;;;;17.72;81.11;155915.69;4992785;28;20446;-75
2021/06/27 03:43:10;;;;;;;6.67;6.07;;;;;;;17.74;80.90;155919.63;4972500;28;20454;-75
2021/06/27 03:45:46;;;;;;;7.00;6.40;;;;;;;17.71;81.24;155911.81;4976455;28;20446;-75
2021/06/27 03:48:21;;;;;;;7.03;6.33;;;;;;;17.67;81.64;155902.69;4958962;28;20458;-75
2021/06/27 03:50:57;;;;;;;6.80;6.20;;;;;;;17.67;82.04;155901.38;4956699;28;20438;-75
2021/06/27 03:53:32;;;;;;;7.23;6.60;;;;;;;17.70;81.76;155910.50;4974424;28;20442;-75
2021/06/27 03:56:08;;;;;;;6.77;6.17;;;;;;;17.67;81.77;155902.69;4966205;28;20473;-75
2021/06/27 03:58:45;;;;;;;7.20;6.00;;;;;;;17.88;80.95;155956.03;4957305;28;20489;-75
2021/06/27 04:01:20;;;;;;;6.63;6.03;;;;;;;17.89;80.45;155958.66;4969114;28;21001;-75
2021/06/27 04:03:56;;;;;;;6.80;6.20;;;;;;;17.83;81.07;155944.34;4972803;28;20435;-75
2021/06/27 04:06:31;;;;;;;6.53;5.93;;;;;;;17.78;81.61;155930.00;4971738;28;20917;-75
2021/06/27 04:09:07;;;;;;;6.93;6.33;;;;;;;17.75;81.71;155923.50;4969900;28;20419;-75
2021/06/27 04:11:42;;;;;;;7.10;6.40;;;;;;;17.87;81.11;155954.72;4976781;28;20766;-75
2021/06/27 04:14:19;;;;;;;6.27;5.67;;;;;;;17.88;81.56;155956.03;4971956;28;20447;-74
2021/06/27 04:16:55;;;;;;;8.00;7.27;;;;;;;17.83;81.96;155943.03;4973053;28;20579;-75
2021/06/27 04:19:30;;;;;;;6.60;6.00;;;;;;;17.92;81.43;155966.50;4975872;28;20438;-75
2021/06/27 04:22:05;;;;;;;7.90;7.10;;;;;;;17.99;80.96;155984.69;4977733;28;20446;-75
2021/06/27 04:24:41;;;;;;;7.27;6.57;;;;;;;17.97;81.32;155980.81;4977111;28;20824;-75
2021/06/27 04:27:16;;;;;;;6.83;6.20;;;;;;;17.98;82.01;155983.38;4972257;28;20542;-75
2021/06/27 04:29:53;;;;;;;7.97;7.27;;;;;;;18.05;81.75;156001.66;4975916;28;20443;-75
2021/06/27 04:32:29;;;;;;;7.43;6.70;;;;;;;18.07;82.07;156005.53;4971885;28;20455;-75
2021/06/27 04:35:07;;;;;;;8.07;6.43;;;;;;;18.06;82.18;156004.22;4981286;28;20455;-75
2021/06/27 04:37:42;;;;;;;7.20;6.53;;;;;;;18.09;81.42;156012.03;4992067;28;20537;-75
2021/06/27 04:40:18;;;;;;;7.27;6.57;;;;;;;18.05;82.15;156000.34;4972008;28;20435;-75
2021/06/27 04:42:54;;;;;;;8.10;7.10;;;;;;;18.02;82.30;155992.53;4956897;29;20559;-75
2021/06/27 04:45:31;;;;;;;8.47;7.63;;;;;;;18.04;82.18;155999.03;4970190;28;20454;-75
2021/06/27 04:48:10;;;;;;;8.50;7.33;;;;;;;18.11;81.78;156017.25;4970368;28;20462;-75
2021/06/27 04:50:47;;;;;;;8.90;7.53;;;;;;;18.23;81.28;156048.53;4975876;28;20442;-75
2021/06/27 04:53:23;;;;;;;7.10;6.50;;;;;;;18.30;81.04;156064.13;4972208;28;20808;-75
2021/06/27 04:55:59;;;;;;;10.43;7.80;;;;;;;18.36;79.88;156079.75;4975319;28;20470;-75
2021/06/27 04:58:35;;;;;;;7.63;6.60;;;;;;;18.48;80.14;156112.38;4975474;28;20521;-76
2021/06/27 05:01:12;;;;;;;7.73;7.00;;;;;;;18.45;80.18;156104.53;4970412;28;20496;-75
2021/06/27 05:03:48;;;;;;;7.80;6.90;;;;;;;18.33;80.52;156073.25;4952208;28;20454;-75
2021/06/27 05:06:23;;;;;;;7.77;7.07;;;;;;;18.36;80.27;156079.75;4968407;28;20439;-75
2021/06/27 05:08:59;;;;;;;7.23;6.47;;;;;;;18.44;79.95;156100.59;4956582;28;20981;-75
2021/06/27 05:11:34;;;;;;;7.63;6.93;;;;;;;18.47;80.04;156109.78;4972793;28;20438;-75
2021/06/27 05:14:10;;;;;;;7.33;6.47;;;;;;;18.57;79.58;156134.53;4959078;28;20450;-75
2021/06/27 05:16:47;;;;;;;8.10;7.20;;;;;;;18.68;78.53;156164.50;4976803;28;20486;-75
2021/06/27 05:19:22;;;;;;;8.77;7.90;;;;;;;18.71;79.23;156171.00;4970764;28;21005;-75
2021/06/27 05:21:58;;;;;;;9.03;8.00;;;;;;;18.83;79.24;156202.25;4982242;28;20840;-75
2021/06/27 05:24:33;;;;;;;7.23;6.53;;;;;;;19.13;79.19;156279.16;4976457;28;20450;-75
2021/06/27 05:27:09;;;;;;;7.77;6.97;;;;;;;19.36;78.01;156339.09;4969769;28;20458;-75
2021/06/27 05:29:44;;;;;;;9.07;7.27;;;;;;;19.44;76.33;156361.31;4976341;28;20466;-75
2021/06/27 05:32:21;;;;;;;7.73;6.97;;;;;;;19.91;74.63;156481.22;4970825;28;20557;-75
2021/06/27 05:34:56;;;;;;;8.80;7.90;;;;;;;20.49;72.11;156631.28;4974635;28;20454;-75
2021/06/27 05:37:32;;;;;;;6.87;6.17;;;;;;;20.80;69.93;156712.16;4976059;28;20482;-75
2021/06/27 05:40:09;;;;;;;9.17;6.23;;;;;;;20.85;69.29;156723.91;4969228;28;20447;-76
2021/06/27 05:42:46;;;;;;;5.93;5.37;;;;;;;20.79;69.34;156708.22;4974413;28;21005;-75
2021/06/27 05:45:21;;;;;;;7.40;6.70;;;;;;;20.89;69.73;156735.63;4967332;28;20451;-75
2021/06/27 05:47:58;;;;;;;6.77;6.17;;;;;;;20.82;70.39;156716.06;4955678;29;20898;-75
2021/06/27 05:50:34;;;;;;;7.77;6.17;;;;;;;21.40;69.41;156867.50;4959073;28;20549;-75
2021/06/27 05:53:09;;;;;;;7.17;6.43;;;;;;;22.40;66.57;157127.38;4969685;28;20489;-75
2021/06/27 05:55:45;;;;;;;6.80;6.20;;;;;;;21.90;67.63;156995.47;4953504;28;20451;-75
2021/06/27 05:58:20;;;;;;;6.83;6.23;;;;;;;21.81;66.93;156974.56;4975862;28;20510;-75
2021/06/27 06:00:56;;;;;;;6.77;6.17;;;;;;;22.41;66.48;157128.69;4968640;28;20442;-75
2021/06/27 06:03:32;;;;;;;5.93;5.43;;;;;;;22.33;66.98;157107.78;4986864;28;20454;-75
2021/06/27 06:06:10;;;;;;;6.20;5.60;;;;;;;22.01;67.73;157024.22;4970386;28;20833;-75
2021/06/27 06:08:46;;;;;;;7.63;6.93;;;;;;;21.93;68.88;157003.31;4974266;28;20454;-75
2021/06/27 06:11:25;;;;;;;6.40;5.80;;;;;;;21.79;69.59;156969.31;4970881;28;20435;-75
2021/06/27 06:14:00;;;;;;;6.70;6.10;;;;;;;22.25;69.16;157086.91;4973958;28;20470;-75
2021/06/27 06:16:37;;;;;;;6.57;6.07;;;;;;;22.36;68.18;157115.63;4972741;28;20822;-75
2021/06/27 06:19:17;;;;;;;7.03;6.43;;;;;;;22.39;68.77;157123.47;4964313;28;20917;-75
2021/06/27 06:21:53;;;;;;;6.33;5.73;;;;;;;22.24;67.30;157084.31;4957298;28;21202;-76
2021/06/27 06:24:28;;;;;;;7.47;6.10;;;;;;;22.29;66.37;157097.38;4971470;28;20451;-76
2021/06/27 06:27:05;;;;;;;6.73;6.03;;;;;;;22.71;64.99;157205.84;4964089;28;20776;-75
2021/06/27 06:29:40;;;;;;;6.43;5.80;;;;;;;22.40;65.67;157126.06;4967185;28;20447;-75
2021/06/27 06:32:16;;;;;;;7.43;6.73;;;;;;;22.07;65.49;157041.22;4966470;28;20790;-75
2021/06/27 06:34:53;;;;;;;7.53;6.87;;;;;;;22.01;67.69;157024.22;4955781;28;20455;-75
2021/06/27 06:37:28;;;;;;;7.23;6.53;;;;;;;22.81;66.14;157233.25;4987561;28;20973;-75
2021/06/27 06:40:05;;;;;;;6.80;6.20;;;;;;;23.00;63.40;157282.94;4965289;28;20462;-75
2021/06/27 06:42:41;;;;;;;7.67;6.33;;;;;;;23.36;62.61;157374.38;4986726;28;20451;-75
2021/06/27 06:45:16;;;;;;;6.50;5.90;;;;;;;23.81;61.80;157490.75;4966676;28;20958;-75
2021/06/27 06:47:52;;;;;;;6.80;6.20;;;;;;;23.99;60.55;157539.13;4971344;28;20477;-75
2021/06/27 06:50:30;;;;;;;6.33;5.73;;;;;;;23.92;61.83;157520.84;4975037;28;20451;-75
2021/06/27 06:53:06;;;;;;;5.70;5.20;;;;;;;24.11;60.73;157569.28;4965378;28;20458;-75
2021/06/27 06:55:42;;;;;;;5.97;5.47;;;;;;;24.26;60.79;157608.50;4971715;28;20443;-75
2021/06/27 06:58:17;;;;;;;6.43;5.83;;;;;;;25.08;59.08;157821.78;4971400;28;20795;-75
2021/06/27 07:00:52;;;;;;;6.50;5.63;;;;;;;24.86;59.19;157764.19;4952825;28;20493;-76
2021/06/27 07:03:30;;;;;;;5.73;5.23;;;;;;;24.78;59.74;157743.25;4970662;28;20466;-75
2021/06/27 07:06:07;;;;;;;6.60;5.40;;;;;;;24.90;59.69;157773.38;4966500;28;20478;-76
2021/06/27 07:08:42;;;;;;;6.73;6.13;;;;;;;25.23;58.51;157859.75;4985889;28;20446;-75
2021/06/27 07:11:18;;;;;;;6.20;5.70;;;;;;;25.53;58.44;157938.31;4972569;28;20446;-75
2021/06/27 07:13:53;;;;;;;6.80;6.30;;;;;;;25.84;56.41;158018.19;4965314;28;20470;-75
2021/06/27 07:16:29;;;;;;;6.60;6.00;;;;;;;25.79;56.43;158005.03;4969155;28;20858;-75
2021/06/27 07:19:05;;;;;;;6.03;5.53;;;;;;;26.95;54.65;158307.66;4960560;28;20446;-75
2021/06/27 07:21:43;;;;;;;5.80;5.40;;;;;;;27.25;52.81;158384.97;4973226;28;20545;-76
2021/06/27 07:24:19;;;;;;;5.97;5.57;;;;;;;27.66;51.70;158492.50;4968775;28;20446;-75
2021/06/27 07:26:54;;;;;;;6.13;5.63;;;;;;;27.67;51.59;158493.78;4963321;28;20446;-75
2021/06/27 07:29:30;;;;;;;5.60;5.20;;;;;;;28.65;50.27;158749.53;4970470;28;21083;-75
2021/06/27 07:32:07;;;;;;;6.77;6.17;;;;;;;28.66;49.46;158750.84;4973582;28;20438;-75
2021/06/27 07:34:42;;;;;;;5.53;5.13;;;;;;;29.32;47.95;158922.75;4970943;28;20435;-75
2021/06/27 07:37:19;;;;;;;6.73;6.13;;;;;;;29.52;48.32;158975.25;4978713;28;20477;-75
2021/06/27 07:39:55;;;;;;;7.50;6.90;;;;;;;28.52;49.72;158714.06;4972461;28;20474;-76
2021/06/27 07:42:30;;;;;;;6.30;5.87;;;;;;;28.36;49.30;158674.75;4971531;28;20494;-76
2021/06/27 07:45:08;;;;;;;7.70;5.77;;;;;;;28.89;48.94;158812.50;4966811;28;20450;-76
2021/06/27 07:47:43;;;;;;;6.03;5.53;;;;;;;30.01;48.01;159102.56;4972717;28;20451;-76
2021/06/27 07:50:18;;;;;;;6.00;5.50;;;;;;;30.41;45.78;159206.31;4968427;28;20537;-76
2021/06/27 07:52:55;;;;;;;6.27;5.77;;;;;;;29.15;47.44;158878.13;4972108;28;20458;-76
2021/06/27 07:55:31;;;;;;;6.80;6.20;;;;;;;29.90;46.67;159075.00;4971346;28;20450;-76
2021/06/27 07:58:07;;;;;;;6.00;5.50;;;;;;;30.42;45.94;159208.97;4960354;28;20505;-76
2021/06/27 08:00:42;;;;;;;6.60;6.10;;;;;;;29.76;45.54;159036.94;4972166;28;20438;-76
2021/06/27 08:03:18;;;;;;;6.47;5.67;;;;;;;29.26;46.52;158908.31;4970579;28;21020;-76
2021/06/27 08:05:53;;;;;;;6.27;5.77;;;;;;;29.27;46.52;158909.63;4967946;28;20454;-76
2021/06/27 08:08:30;;;;;;;5.93;5.30;;;;;;;29.28;47.09;158912.28;4970905;28;20450;-76
2021/06/27 08:11:06;;;;;;;6.43;5.93;;;;;;;29.82;46.64;159052.69;4972626;28;20446;-76
2021/06/27 08:13:41;;;;;;;6.23;5.67;;;;;;;30.05;46.60;159114.38;4972992;28;20459;-76
2021/06/27 08:16:16;;;;;;;5.70;5.30;;;;;;;29.98;45.41;159094.69;4961480;28;20840;-76
2021/06/27 08:18:51;;;;;;;5.83;5.40;;;;;;;29.55;46.26;158983.09;4972761;28;20838;-76
2021/06/27 08:21:27;;;;;;;6.10;5.63;;;;;;;29.83;46.00;159055.34;4971613;28;20481;-76
2021/06/27 08:24:04;;;;;;;6.40;5.93;;;;;;;29.23;46.43;158899.16;4964578;28;20458;-76
2021/06/27 08:26:40;;;;;;;6.00;5.60;;;;;;;30.11;45.66;159130.13;4964822;28;20974;-76
2021/06/27 08:29:15;;;;;;;5.60;5.20;;;;;;;30.05;44.89;159113.09;4966996;28;20446;-76
2021/06/27 08:31:51;;;;;;;5.90;5.40;;;;;;;30.77;44.48;159300.84;4972462;28;20443;-76
2021/06/27 08:34:30;;;;;;;5.90;5.40;;;;;;;29.90;46.87;159073.69;4972976;28;20474;-76
2021/06/27 08:37:06;;;;;;;6.40;5.80;;;;;;;31.01;44.18;159363.94;4972187;28;20474;-76
2021/06/27 08:39:43;;;;;;;6.10;5.70;;;;;;;31.12;43.08;159392.84;4970289;28;20462;-76
2021/06/27 08:42:19;;;;;;;5.33;4.93;;;;;;;30.92;44.02;159340.31;4951705;28;20450;-76
2021/06/27 08:44:56;;;;;;;5.70;5.30;;;;;;;31.00;43.36;159360.03;4971180;28;20446;-76
2021/06/27 08:47:32;;;;;;;5.40;5.00;;;;;;;32.02;42.80;159626.78;4973347;28;20498;-76
2021/06/27 08:50:10;;;;;;;6.07;5.57;;;;;;;31.30;42.87;159440.13;4966443;28;20450;-76
2021/06/27 08:52:46;;;;;;;5.03;4.70;;;;;;;31.16;41.09;159403.31;4971504;28;20860;-76
2021/06/27 08:55:23;;;;;;;5.63;5.23;;;;;;;31.07;41.16;159379.72;4974853;28;20450;-77
2021/06/27 08:57:58;;;;;;;6.00;5.47;;;;;;;31.79;41.25;159567.63;4958994;28;20481;-77
2021/06/27 09:00:34;;;;;;;5.73;5.33;;;;;;;31.05;42.64;159374.47;4975297;28;20510;-77
2021/06/27 09:03:10;;;;;;;5.60;5.20;;;;;;;30.93;43.46;159341.59;4962610;28;20922;-76
2021/06/27 09:05:46;;;;;;;5.50;5.00;;;;;;;31.50;43.59;159490.09;4974777;28;20910;-76
2021/06/27 09:08:21;;;;;;;5.50;5.10;;;;;;;30.64;43.23;159268.03;4969424;28;20549;-76
2021/06/27 09:11:12;;;;;;;6.23;5.73;;;;;;;30.82;42.87;159313.97;4975243;28;20457;-77
2021/06/27 09:13:47;;;;;;;5.20;4.80;;;;;;;30.13;44.72;159134.06;4955436;28;20443;-76
2021/06/27 09:16:24;;;;;;;5.30;4.90;;;;;;;30.32;44.38;159183.94;4972327;28;20454;-77
2021/06/27 09:19:01;;;;;;;5.40;5.00;;;;;;;30.20;43.64;159151.13;4962524;28;20458;-76
2021/06/27 09:21:37;;;;;;;4.87;4.57;;;;;;;30.99;42.78;159358.69;4974644;28;20481;-76
2021/06/27 09:24:26;;;;;;;5.10;4.70;;;;;;;29.80;43.51;159047.44;4976550;28;20435;-76
2021/06/27 09:27:16;;;;;;;5.37;4.53;;;;;;;29.63;44.24;159002.81;4976392;28;20431;-76
2021/06/27 09:29:54;;;;;;;5.80;5.30;;;;;;;30.63;42.96;159264.13;4959683;28;20442;-76
2021/06/27 09:32:29;;;;;;;5.00;4.50;;;;;;;30.39;42.88;159201.09;4974253;28;20446;-76
2021/06/27 09:35:06;;;;;;;5.47;5.07;;;;;;;30.79;43.05;159304.81;4969464;28;20525;-76
2021/06/27 09:37:42;;;;;;;5.50;5.10;;;;;;;30.36;43.29;159194.53;4976468;28;20478;-77
2021/06/27 09:40:17;;;;;;;5.10;4.70;;;;;;;30.58;44.42;159252.25;4975927;28;20415;-76
2021/06/27 09:45:47;;;;;;;4.73;4.33;;;;;;;30.87;41.98;159327.09;5106075;27;20524;-74
2021/06/27 09:48:23;;;;;;;6.00;4.97;;;;;;;30.85;41.15;159321.84;5089094;28;20535;-74
2021/06/27 09:50:59;;;;;;;4.80;4.40;;;;;;;30.51;43.56;159232.56;5070113;28;20415;-74
2021/06/27 09:53:37;;;;;;;4.80;4.50;;;;;;;30.15;44.01;159140.66;5086971;28;20462;-74
2021/06/27 09:56:13;;;;;;;4.83;4.53;;;;;;;30.40;44.39;159203.69;5084545;28;20438;-74
2021/06/27 09:59:00;;;;;;;5.03;4.60;;;;;;;30.32;42.75;159182.63;5113078;27;20442;-74
2021/06/27 10:01:38;;;;;;;4.73;4.30;;;;;;;30.69;41.34;159281.16;5077462;28;20442;-74
2021/06/27 10:04:14;;;;;;;6.00;4.60;;;;;;;30.35;41.51;159191.84;5129463;27;20959;-74
2021/06/27 10:06:52;;;;;;;4.70;4.40;;;;;;;29.81;43.69;159051.38;5143263;27;20437;-74
2021/06/27 10:09:30;;;;;;;4.97;4.53;;;;;;;29.65;45.41;159009.38;5138879;27;20480;-74
2021/06/27 10:12:08;;;;;;;4.60;4.20;;;;;;;29.43;44.70;158951.63;5069789;28;20879;-74
2021/06/27 10:14:58;;;;;;;4.93;4.47;;;;;;;29.32;43.93;158924.06;5096569;28;20951;-74
2021/06/27 10:17:34;;;;;;;5.00;4.50;;;;;;;29.04;45.09;158849.25;5069838;28;20418;-75
2021/06/27 10:20:11;;;;;;;4.70;4.30;;;;;;;28.86;44.74;158803.31;5095100;28;20782;-74
2021/06/27 10:22:47;;;;;;;3.87;3.57;;;;;;;29.29;43.84;158914.84;5122430;28;20449;-74
2021/06/27 10:25:22;;;;;;;4.30;4.00;;;;;;;29.61;41.52;158998.84;5122553;28;20479;-74
2021/06/27 10:27:58;;;;;;;3.80;3.50;;;;;;;28.55;42.19;158723.28;5112916;28;20935;-74
2021/06/27 10:30:35;;;;;;;4.00;3.70;;;;;;;27.87;42.42;158544.91;5089646;28;20489;-75
2021/06/27 10:33:12;;;;;;;3.50;3.20;;;;;;;28.03;42.20;158586.91;5111069;28;20453;-74
2021/06/27 10:35:49;;;;;;;3.73;3.43;;;;;;;28.30;42.86;158657.72;5101815;28;20422;-74
2021/06/27 10:38:27;;;;;;;3.37;3.17;;;;;;;28.90;42.73;158815.13;5073489;28;20433;-75
2021/06/27 10:41:03;;;;;;;3.93;3.63;;;;;;;29.08;41.72;158861.03;5142807;27;20787;-74
2021/06/27 10:44:01;;;;;;;3.90;3.60;;;;;;;28.76;42.44;158778.41;5142190;27;20574;-74
2021/06/27 10:46:39;;;;;;;3.80;3.50;;;;;;;28.45;42.63;158697.06;5066575;28;20540;-74
2021/06/27 10:50:09;;;;;;;4.30;3.83;;;;;;;28.05;43.65;158593.47;5079499;28;20543;-74
2021/06/27 10:53:04;;;;;;;3.97;3.63;;;;;;;28.54;43.10;158720.63;5098409;28;20539;-74
2021/06/27 10:55:44;;;;;;;4.57;4.17;;;;;;;28.57;43.71;158728.50;5116038;27;20517;-74
2021/06/27 10:58:35;;;;;;;4.07;3.70;;;;;;;28.27;41.83;158651.19;5074365;28;20991;-74
2021/06/27 11:01:14;;;;;;;3.57;3.27;;;;;;;27.87;42.04;158544.91;5072101;28;20547;-74
2021/06/27 11:03:49;;;;;;;3.53;3.23;;;;;;;27.61;41.69;158479.41;5070324;28;20442;-74
2021/06/27 11:06:41;;;;;;;4.00;3.70;;;;;;;28.05;43.04;158592.16;5087666;28;20533;-74
2021/06/27 11:09:29;;;;;;;4.07;3.77;;;;;;;28.63;40.99;158744.31;5095189;28;20449;-75
2021/06/27 11:12:07;;;;;;;3.67;3.37;;;;;;;29.02;41.07;158844.00;5073580;28;20470;-74
2021/06/27 11:15:13;;;;;;;4.30;4.00;;;;;;;28.70;42.81;158761.38;5075470;28;20458;-74
2021/06/27 11:17:51;;;;;;;5.20;4.80;;;;;;;28.59;44.89;158733.78;5073850;28;20541;-74
2021/06/27 11:20:30;;;;;;;5.10;4.60;;;;;;;28.34;46.16;158668.19;5087116;28;20454;-74
2021/06/27 11:23:05;;;;;;;4.37;4.07;;;;;;;28.35;44.02;158670.84;5054099;28;20451;-74
2021/06/27 11:25:45;;;;;;;4.10;3.80;;;;;;;28.65;42.06;158748.22;5070277;28;20462;-74
2021/06/27 11:28:34;;;;;;;3.50;3.23;;;;;;;28.42;42.52;158689.19;5080470;28;20490;-74
2021/06/27 11:31:27;;;;;;;3.53;3.23;;;;;;;28.77;41.90;158779.72;5127523;27;20438;-74
2021/06/27 11:34:22;;;;;;;3.43;3.20;;;;;;;28.71;42.26;158765.28;5108185;27;20458;-74
2021/06/27 11:37:36;;;;;;;5.20;4.07;;;;;;;28.69;42.87;158760.06;5070621;28;20462;-74
2021/06/27 11:40:14;;;;;;;6.20;4.30;;;;;;;28.68;43.32;158756.09;5090313;28;20486;-74
2021/06/27 11:42:51;;;;;;;5.27;4.80;;;;;;;28.28;42.56;158653.75;5074754;28;20415;-74
2021/06/27 11:45:50;;;;;;;3.57;3.37;;;;;;;28.63;43.22;158744.31;5113708;27;20476;-74
2021/06/27 11:48:25;;;;;;;3.80;3.53;;;;;;;28.71;43.29;158765.28;5108101;27;20474;-75
2021/06/27 11:51:01;;;;;;;4.00;3.70;;;;;;;28.42;42.30;158689.19;5106487;28;20437;-75
2021/06/27 11:53:36;;;;;;;4.20;3.90;;;;;;;28.45;42.80;158697.06;5072115;28;20457;-75
2021/06/27 11:56:15;;;;;;;4.73;3.80;;;;;;;28.24;43.89;158641.97;5113143;27;20445;-74
2021/06/27 11:59:09;;;;;;;3.83;3.53;;;;;;;27.88;44.24;158548.81;5066383;28;20438;-75
2021/06/27 12:02:04;;;;;;;4.13;3.83;;;;;;;28.03;44.04;158588.25;5088189;28;20441;-74
2021/06/27 12:04:50;;;;;;;4.60;3.80;;;;;;;27.78;44.25;158522.63;5068774;28;20474;-75
2021/06/27 12:07:31;;;;;;;3.60;3.37;;;;;;;27.77;44.22;158521.31;5050940;28;20536;-74
2021/06/27 12:10:21;;;;;;;4.07;3.33;;;;;;;27.68;43.47;158497.75;5055174;28;20477;-74
2021/06/27 12:12:59;;;;;;;4.13;3.83;;;;;;;27.65;43.39;158488.53;5074154;28;20802;-74
2021/06/27 12:15:37;;;;;;;4.10;3.70;;;;;;;27.87;43.13;158546.25;5118028;27;20446;-74